sensor_id;sensor_type;location;lat;lon;timestamp;P1;durP1;ratioP1;P2;durP2;ratioP2
15637;SDS011;26604;53.596;10.042;2022-08-19T00:01:19;9.30;;;5.60;;
15637;SDS011;26604;53.596;10.042;2022-08-19T00:03:46;8.45;;;6.35;;
15637;SDS011;26604;53.596;10.042;2022-08-19T00:06:14;10.68;;;7.88;;
15637;SDS011;26604;53.596;10.042;2022-08-19T00:08:42;13.35;;;8.77;;
15637;SDS011;26604;53.596;10.042;2022-08-19T00:11:10;11.98;;;8.00;;
15637;SDS011;26604;53.596;10.042;2022-08-19T00:13:37;15.70;;;9.70;;
15637;SDS011;26604;53.596;10.042;2022-08-19T00:16:04;18.38;;;9.55;;
15637;SDS011;26604;53.596;10.042;2022-08-19T00:18:32;14.68;;;10.13;;
15637;SDS011;26604;53.596;10.042;2022-08-19T00:20:59;15.25;;;10.20;;
15637;SDS011;26604;53.596;10.042;2022-08-19T00:23:27;19.38;;;10.85;;
15637;SDS011;26604;53.596;10.042;2022-08-19T00:25:56;17.88;;;11.02;;
15637;SDS011;26604;53.596;10.042;2022-08-19T00:28:23;17.88;;;11.60;;
15637;SDS011;26604;53.596;10.042;2022-08-19T00:30:50;16.30;;;11.02;;
15637;SDS011;26604;53.596;10.042;2022-08-19T00:33:18;18.08;;;10.10;;
15637;SDS011;26604;53.596;10.042;2022-08-19T00:35:45;13.88;;;9.93;;
15637;SDS011;26604;53.596;10.042;2022-08-19T00:38:12;18.50;;;9.95;;
15637;SDS011;26604;53.596;10.042;2022-08-19T00:40:39;15.40;;;9.63;;
15637;SDS011;26604;53.596;10.042;2022-08-19T00:43:10;16.48;;;9.68;;
15637;SDS011;26604;53.596;10.042;2022-08-19T00:45:38;16.30;;;9.68;;
15637;SDS011;26604;53.596;10.042;2022-08-19T00:48:08;17.02;;;10.38;;
15637;SDS011;26604;53.596;10.042;2022-08-19T00:50:35;14.88;;;10.68;;
15637;SDS011;26604;53.596;10.042;2022-08-19T00:53:05;19.38;;;10.77;;
15637;SDS011;26604;53.596;10.042;2022-08-19T00:55:33;15.20;;;10.20;;
15637;SDS011;26604;53.596;10.042;2022-08-19T00:58:05;16.60;;;10.80;;
15637;SDS011;26604;53.596;10.042;2022-08-19T01:00:36;18.42;;;10.25;;
15637;SDS011;26604;53.596;10.042;2022-08-19T01:03:05;19.38;;;10.68;;
15637;SDS011;26604;53.596;10.042;2022-08-19T01:05:34;20.00;;;10.50;;
15637;SDS011;26604;53.596;10.042;2022-08-19T01:08:02;25.75;;;12.65;;
15637;SDS011;26604;53.596;10.042;2022-08-19T01:10:32;21.13;;;11.02;;
15637;SDS011;26604;53.596;10.042;2022-08-19T01:13:03;19.15;;;11.10;;
15637;SDS011;26604;53.596;10.042;2022-08-19T01:15:31;17.33;;;11.32;;
15637;SDS011;26604;53.596;10.042;2022-08-19T01:18:03;16.35;;;10.95;;
15637;SDS011;26604;53.596;10.042;2022-08-19T01:20:33;17.33;;;9.68;;
15637;SDS011;26604;53.596;10.042;2022-08-19T01:23:02;16.02;;;10.40;;
15637;SDS011;26604;53.596;10.042;2022-08-19T01:25:30;17.00;;;10.38;;
15637;SDS011;26604;53.596;10.042;2022-08-19T01:28:01;17.83;;;10.60;;
15637;SDS011;26604;53.596;10.042;2022-08-19T01:30:30;17.88;;;10.40;;
15637;SDS011;26604;53.596;10.042;2022-08-19T01:32:58;15.70;;;9.65;;
15637;SDS011;26604;53.596;10.042;2022-08-19T01:35:26;16.90;;;10.23;;
15637;SDS011;26604;53.596;10.042;2022-08-19T01:37:56;17.50;;;10.13;;
15637;SDS011;26604;53.596;10.042;2022-08-19T01:40:27;20.23;;;11.82;;
15637;SDS011;26604;53.596;10.042;2022-08-19T01:42:58;15.93;;;10.10;;
15637;SDS011;26604;53.596;10.042;2022-08-19T01:45:26;16.15;;;10.20;;
15637;SDS011;26604;53.596;10.042;2022-08-19T01:47:55;17.15;;;10.23;;
15637;SDS011;26604;53.596;10.042;2022-08-19T01:50:22;19.40;;;9.90;;
15637;SDS011;26604;53.596;10.042;2022-08-19T01:52:50;16.08;;;9.93;;
15637;SDS011;26604;53.596;10.042;2022-08-19T01:55:18;14.88;;;10.10;;
15637;SDS011;26604;53.596;10.042;2022-08-19T01:57:50;19.33;;;10.38;;
15637;SDS011;26604;53.596;10.042;2022-08-19T02:00:22;16.13;;;9.82;;
15637;SDS011;26604;53.596;10.042;2022-08-19T02:02:50;16.33;;;10.63;;
15637;SDS011;26604;53.596;10.042;2022-08-19T02:05:17;20.30;;;10.90;;
15637;SDS011;26604;53.596;10.042;2022-08-19T02:07:46;18.33;;;10.43;;
15637;SDS011;26604;53.596;10.042;2022-08-19T02:10:15;16.50;;;10.45;;
15637;SDS011;26604;53.596;10.042;2022-08-19T02:12:44;19.65;;;10.57;;
15637;SDS011;26604;53.596;10.042;2022-08-19T02:15:12;18.40;;;11.60;;
15637;SDS011;26604;53.596;10.042;2022-08-19T02:17:39;19.25;;;10.13;;
15637;SDS011;26604;53.596;10.042;2022-08-19T02:20:07;16.85;;;10.57;;
15637;SDS011;26604;53.596;10.042;2022-08-19T02:22:34;19.00;;;11.05;;
15637;SDS011;26604;53.596;10.042;2022-08-19T02:25:01;19.27;;;10.00;;
15637;SDS011;26604;53.596;10.042;2022-08-19T02:27:30;21.77;;;11.45;;
15637;SDS011;26604;53.596;10.042;2022-08-19T02:29:58;22.15;;;10.95;;
15637;SDS011;26604;53.596;10.042;2022-08-19T02:32:27;18.90;;;10.40;;
15637;SDS011;26604;53.596;10.042;2022-08-19T02:34:55;21.08;;;10.40;;
15637;SDS011;26604;53.596;10.042;2022-08-19T02:37:22;18.88;;;10.82;;
15637;SDS011;26604;53.596;10.042;2022-08-19T02:40:06;16.50;;;9.85;;
15637;SDS011;26604;53.596;10.042;2022-08-19T02:42:34;18.95;;;10.77;;
15637;SDS011;26604;53.596;10.042;2022-08-19T02:45:01;19.63;;;11.27;;
15637;SDS011;26604;53.596;10.042;2022-08-19T02:47:30;23.02;;;12.00;;
15637;SDS011;26604;53.596;10.042;2022-08-19T02:49:57;23.92;;;11.02;;
15637;SDS011;26604;53.596;10.042;2022-08-19T02:52:23;26.05;;;12.25;;
15637;SDS011;26604;53.596;10.042;2022-08-19T02:54:52;19.75;;;10.18;;
15637;SDS011;26604;53.596;10.042;2022-08-19T02:57:22;21.05;;;11.15;;
15637;SDS011;26604;53.596;10.042;2022-08-19T02:59:49;22.70;;;11.43;;
15637;SDS011;26604;53.596;10.042;2022-08-19T03:02:16;29.13;;;12.38;;
15637;SDS011;26604;53.596;10.042;2022-08-19T03:04:44;22.92;;;12.18;;
15637;SDS011;26604;53.596;10.042;2022-08-19T03:07:12;24.20;;;12.70;;
15637;SDS011;26604;53.596;10.042;2022-08-19T03:09:40;23.02;;;12.00;;
15637;SDS011;26604;53.596;10.042;2022-08-19T03:12:08;27.17;;;12.75;;
15637;SDS011;26604;53.596;10.042;2022-08-19T03:14:36;29.25;;;12.52;;
15637;SDS011;26604;53.596;10.042;2022-08-19T03:17:04;23.75;;;12.05;;
15637;SDS011;26604;53.596;10.042;2022-08-19T03:19:31;29.75;;;12.48;;
15637;SDS011;26604;53.596;10.042;2022-08-19T03:21:59;21.90;;;11.98;;
15637;SDS011;26604;53.596;10.042;2022-08-19T03:24:28;21.27;;;11.50;;
15637;SDS011;26604;53.596;10.042;2022-08-19T03:26:55;23.20;;;12.15;;
15637;SDS011;26604;53.596;10.042;2022-08-19T03:29:24;25.60;;;12.05;;
15637;SDS011;26604;53.596;10.042;2022-08-19T03:31:52;21.88;;;11.68;;
15637;SDS011;26604;53.596;10.042;2022-08-19T03:34:22;24.02;;;11.90;;
15637;SDS011;26604;53.596;10.042;2022-08-19T03:36:51;25.80;;;12.02;;
15637;SDS011;26604;53.596;10.042;2022-08-19T03:39:20;22.77;;;11.65;;
15637;SDS011;26604;53.596;10.042;2022-08-19T03:41:48;26.48;;;11.93;;
15637;SDS011;26604;53.596;10.042;2022-08-19T03:44:17;25.90;;;11.65;;
15637;SDS011;26604;53.596;10.042;2022-08-19T03:46:47;24.05;;;12.02;;
15637;SDS011;26604;53.596;10.042;2022-08-19T03:49:15;22.10;;;10.48;;
15637;SDS011;26604;53.596;10.042;2022-08-19T03:51:42;22.42;;;11.30;;
15637;SDS011;26604;53.596;10.042;2022-08-19T03:54:12;25.75;;;11.65;;
15637;SDS011;26604;53.596;10.042;2022-08-19T03:56:42;32.47;;;12.43;;
15637;SDS011;26604;53.596;10.042;2022-08-19T03:59:11;22.67;;;11.27;;
15637;SDS011;26604;53.596;10.042;2022-08-19T04:01:40;23.23;;;11.00;;
15637;SDS011;26604;53.596;10.042;2022-08-19T04:04:07;27.58;;;11.63;;
15637;SDS011;26604;53.596;10.042;2022-08-19T04:06:35;24.42;;;11.75;;
15637;SDS011;26604;53.596;10.042;2022-08-19T04:09:04;22.95;;;11.50;;
15637;SDS011;26604;53.596;10.042;2022-08-19T04:11:35;29.13;;;11.38;;
15637;SDS011;26604;53.596;10.042;2022-08-19T04:14:08;24.90;;;11.02;;
15637;SDS011;26604;53.596;10.042;2022-08-19T04:16:36;21.80;;;11.27;;
15637;SDS011;26604;53.596;10.042;2022-08-19T04:19:04;22.63;;;10.80;;
15637;SDS011;26604;53.596;10.042;2022-08-19T04:21:32;22.08;;;10.77;;
15637;SDS011;26604;53.596;10.042;2022-08-19T04:24:00;20.33;;;10.88;;
15637;SDS011;26604;53.596;10.042;2022-08-19T04:26:28;20.10;;;10.35;;
15637;SDS011;26604;53.596;10.042;2022-08-19T04:28:57;26.40;;;11.95;;
15637;SDS011;26604;53.596;10.042;2022-08-19T04:31:26;24.92;;;11.90;;
15637;SDS011;26604;53.596;10.042;2022-08-19T04:33:55;22.40;;;10.20;;
15637;SDS011;26604;53.596;10.042;2022-08-19T04:36:23;22.75;;;11.48;;
15637;SDS011;26604;53.596;10.042;2022-08-19T04:38:54;28.15;;;13.13;;
15637;SDS011;26604;53.596;10.042;2022-08-19T04:41:22;26.20;;;11.65;;
15637;SDS011;26604;53.596;10.042;2022-08-19T04:44:07;23.33;;;11.38;;
15637;SDS011;26604;53.596;10.042;2022-08-19T04:46:35;26.70;;;12.65;;
15637;SDS011;26604;53.596;10.042;2022-08-19T04:49:03;29.48;;;13.07;;
15637;SDS011;26604;53.596;10.042;2022-08-19T04:51:31;28.63;;;13.45;;
15637;SDS011;26604;53.596;10.042;2022-08-19T04:53:59;22.58;;;12.85;;
15637;SDS011;26604;53.596;10.042;2022-08-19T04:56:28;28.08;;;12.60;;
15637;SDS011;26604;53.596;10.042;2022-08-19T04:58:55;26.75;;;14.43;;
15637;SDS011;26604;53.596;10.042;2022-08-19T05:01:23;29.02;;;13.52;;
15637;SDS011;26604;53.596;10.042;2022-08-19T05:03:53;28.67;;;14.57;;
15637;SDS011;26604;53.596;10.042;2022-08-19T05:06:21;28.75;;;13.70;;
15637;SDS011;26604;53.596;10.042;2022-08-19T05:08:50;26.88;;;13.52;;
15637;SDS011;26604;53.596;10.042;2022-08-19T05:11:18;25.40;;;12.73;;
15637;SDS011;26604;53.596;10.042;2022-08-19T05:13:47;27.25;;;13.40;;
15637;SDS011;26604;53.596;10.042;2022-08-19T05:16:15;29.67;;;13.75;;
15637;SDS011;26604;53.596;10.042;2022-08-19T05:18:43;29.38;;;14.35;;
15637;SDS011;26604;53.596;10.042;2022-08-19T05:21:29;27.77;;;15.50;;
15637;SDS011;26604;53.596;10.042;2022-08-19T05:24:14;34.50;;;15.45;;
15637;SDS011;26604;53.596;10.042;2022-08-19T05:26:42;30.58;;;15.13;;
15637;SDS011;26604;53.596;10.042;2022-08-19T05:29:11;30.85;;;16.63;;
15637;SDS011;26604;53.596;10.042;2022-08-19T05:31:39;34.13;;;15.68;;
15637;SDS011;26604;53.596;10.042;2022-08-19T05:34:06;26.33;;;15.32;;
15637;SDS011;26604;53.596;10.042;2022-08-19T05:36:37;25.10;;;14.93;;
15637;SDS011;26604;53.596;10.042;2022-08-19T05:39:06;31.67;;;17.02;;
15637;SDS011;26604;53.596;10.042;2022-08-19T05:41:33;29.30;;;15.77;;
15637;SDS011;26604;53.596;10.042;2022-08-19T05:44:02;32.10;;;15.98;;
15637;SDS011;26604;53.596;10.042;2022-08-19T05:46:31;33.63;;;17.00;;
15637;SDS011;26604;53.596;10.042;2022-08-19T05:48:59;25.70;;;16.35;;
15637;SDS011;26604;53.596;10.042;2022-08-19T05:51:26;30.73;;;16.40;;
15637;SDS011;26604;53.596;10.042;2022-08-19T05:53:54;33.50;;;15.57;;
15637;SDS011;26604;53.596;10.042;2022-08-19T05:56:22;27.90;;;15.10;;
15637;SDS011;26604;53.596;10.042;2022-08-19T05:58:50;25.63;;;14.57;;
15637;SDS011;26604;53.596;10.042;2022-08-19T06:01:18;29.83;;;14.85;;
15637;SDS011;26604;53.596;10.042;2022-08-19T06:03:45;24.50;;;13.77;;
15637;SDS011;26604;53.596;10.042;2022-08-19T06:06:14;31.98;;;15.60;;
15637;SDS011;26604;53.596;10.042;2022-08-19T06:08:41;24.23;;;13.95;;
15637;SDS011;26604;53.596;10.042;2022-08-19T06:11:16;29.33;;;15.40;;
15637;SDS011;26604;53.596;10.042;2022-08-19T06:13:46;25.83;;;14.85;;
15637;SDS011;26604;53.596;10.042;2022-08-19T06:16:15;32.25;;;15.80;;
15637;SDS011;26604;53.596;10.042;2022-08-19T06:18:47;29.63;;;13.93;;
15637;SDS011;26604;53.596;10.042;2022-08-19T06:21:16;30.90;;;15.07;;
15637;SDS011;26604;53.596;10.042;2022-08-19T06:23:43;26.23;;;12.93;;
15637;SDS011;26604;53.596;10.042;2022-08-19T06:26:11;23.40;;;12.38;;
15637;SDS011;26604;53.596;10.042;2022-08-19T06:28:39;18.17;;;10.80;;
15637;SDS011;26604;53.596;10.042;2022-08-19T06:31:08;19.67;;;11.57;;
15637;SDS011;26604;53.596;10.042;2022-08-19T06:33:35;21.48;;;10.50;;
15637;SDS011;26604;53.596;10.042;2022-08-19T06:36:02;15.68;;;11.35;;
15637;SDS011;26604;53.596;10.042;2022-08-19T06:38:30;19.13;;;10.57;;
15637;SDS011;26604;53.596;10.042;2022-08-19T06:41:00;23.50;;;11.05;;
15637;SDS011;26604;53.596;10.042;2022-08-19T06:43:28;23.70;;;10.85;;
15637;SDS011;26604;53.596;10.042;2022-08-19T06:45:56;17.85;;;10.68;;
15637;SDS011;26604;53.596;10.042;2022-08-19T06:48:24;24.73;;;11.85;;
15637;SDS011;26604;53.596;10.042;2022-08-19T06:50:51;20.08;;;11.55;;
15637;SDS011;26604;53.596;10.042;2022-08-19T06:53:18;32.17;;;10.30;;
15637;SDS011;26604;53.596;10.042;2022-08-19T06:55:45;22.85;;;10.50;;
15637;SDS011;26604;53.596;10.042;2022-08-19T06:58:12;19.50;;;9.60;;
15637;SDS011;26604;53.596;10.042;2022-08-19T07:00:39;14.95;;;9.20;;
15637;SDS011;26604;53.596;10.042;2022-08-19T07:03:07;19.83;;;10.50;;
15637;SDS011;26604;53.596;10.042;2022-08-19T07:05:38;19.15;;;9.93;;
15637;SDS011;26604;53.596;10.042;2022-08-19T07:08:05;18.20;;;9.45;;
15637;SDS011;26604;53.596;10.042;2022-08-19T07:10:32;13.73;;;9.15;;
15637;SDS011;26604;53.596;10.042;2022-08-19T07:13:01;17.08;;;9.98;;
15637;SDS011;26604;53.596;10.042;2022-08-19T07:15:28;16.90;;;9.68;;
15637;SDS011;26604;53.596;10.042;2022-08-19T07:17:55;17.23;;;8.90;;
15637;SDS011;26604;53.596;10.042;2022-08-19T07:20:24;15.30;;;9.45;;
15637;SDS011;26604;53.596;10.042;2022-08-19T07:22:51;13.15;;;8.98;;
15637;SDS011;26604;53.596;10.042;2022-08-19T07:25:17;15.77;;;9.40;;
15637;SDS011;26604;53.596;10.042;2022-08-19T07:27:45;15.73;;;8.60;;
15637;SDS011;26604;53.596;10.042;2022-08-19T07:30:15;19.10;;;9.38;;
15637;SDS011;26604;53.596;10.042;2022-08-19T07:32:42;14.90;;;9.30;;
15637;SDS011;26604;53.596;10.042;2022-08-19T07:35:09;14.10;;;9.85;;
15637;SDS011;26604;53.596;10.042;2022-08-19T07:37:37;15.20;;;9.30;;
15637;SDS011;26604;53.596;10.042;2022-08-19T07:40:09;13.80;;;9.43;;
15637;SDS011;26604;53.596;10.042;2022-08-19T07:42:37;12.88;;;9.40;;
15637;SDS011;26604;53.596;10.042;2022-08-19T07:45:05;14.93;;;8.93;;
15637;SDS011;26604;53.596;10.042;2022-08-19T07:47:33;15.38;;;9.07;;
15637;SDS011;26604;53.596;10.042;2022-08-19T07:49:59;14.32;;;9.05;;
15637;SDS011;26604;53.596;10.042;2022-08-19T07:52:29;15.95;;;9.63;;
15637;SDS011;26604;53.596;10.042;2022-08-19T07:54:58;15.18;;;8.98;;
15637;SDS011;26604;53.596;10.042;2022-08-19T07:57:28;15.15;;;9.52;;
15637;SDS011;26604;53.596;10.042;2022-08-19T07:59:55;14.23;;;8.43;;
15637;SDS011;26604;53.596;10.042;2022-08-19T08:02:22;17.10;;;10.15;;
15637;SDS011;26604;53.596;10.042;2022-08-19T08:04:49;15.77;;;9.73;;
15637;SDS011;26604;53.596;10.042;2022-08-19T08:07:33;21.02;;;10.13;;
15637;SDS011;26604;53.596;10.042;2022-08-19T08:10:18;19.23;;;10.35;;
15637;SDS011;26604;53.596;10.042;2022-08-19T08:12:45;16.50;;;10.13;;
15637;SDS011;26604;53.596;10.042;2022-08-19T08:15:13;18.63;;;10.43;;
15637;SDS011;26604;53.596;10.042;2022-08-19T08:17:44;18.90;;;10.15;;
15637;SDS011;26604;53.596;10.042;2022-08-19T08:20:11;15.57;;;10.02;;
15637;SDS011;26604;53.596;10.042;2022-08-19T08:22:42;22.67;;;9.40;;
15637;SDS011;26604;53.596;10.042;2022-08-19T08:25:28;21.63;;;10.75;;
15637;SDS011;26604;53.596;10.042;2022-08-19T08:27:56;19.83;;;10.27;;
15637;SDS011;26604;53.596;10.042;2022-08-19T08:30:25;16.27;;;10.00;;
15637;SDS011;26604;53.596;10.042;2022-08-19T08:32:54;18.60;;;10.63;;
15637;SDS011;26604;53.596;10.042;2022-08-19T08:35:22;14.93;;;8.93;;
15637;SDS011;26604;53.596;10.042;2022-08-19T08:37:50;16.95;;;9.85;;
15637;SDS011;26604;53.596;10.042;2022-08-19T08:40:20;13.02;;;9.23;;
15637;SDS011;26604;53.596;10.042;2022-08-19T08:43:02;15.35;;;9.38;;
15637;SDS011;26604;53.596;10.042;2022-08-19T08:45:33;14.77;;;8.55;;
15637;SDS011;26604;53.596;10.042;2022-08-19T08:48:07;20.13;;;8.75;;
15637;SDS011;26604;53.596;10.042;2022-08-19T08:50:42;13.48;;;9.27;;
15637;SDS011;26604;53.596;10.042;2022-08-19T08:53:12;14.70;;;9.50;;
15637;SDS011;26604;53.596;10.042;2022-08-19T08:55:42;15.38;;;8.57;;
15637;SDS011;26604;53.596;10.042;2022-08-19T08:58:13;16.45;;;9.20;;
15637;SDS011;26604;53.596;10.042;2022-08-19T09:00:46;13.80;;;8.85;;
15637;SDS011;26604;53.596;10.042;2022-08-19T09:03:16;15.07;;;8.75;;
15637;SDS011;26604;53.596;10.042;2022-08-19T09:05:48;17.15;;;9.18;;
15637;SDS011;26604;53.596;10.042;2022-08-19T09:08:24;15.63;;;8.57;;
15637;SDS011;26604;53.596;10.042;2022-08-19T09:11:03;13.05;;;8.63;;
15637;SDS011;26604;53.596;10.042;2022-08-19T09:13:37;14.45;;;8.77;;
15637;SDS011;26604;53.596;10.042;2022-08-19T09:16:13;16.38;;;8.63;;
15637;SDS011;26604;53.596;10.042;2022-08-19T09:18:43;15.70;;;9.02;;
15637;SDS011;26604;53.596;10.042;2022-08-19T09:21:12;14.70;;;8.70;;
15637;SDS011;26604;53.596;10.042;2022-08-19T09:23:39;16.77;;;8.88;;
15637;SDS011;26604;53.596;10.042;2022-08-19T09:26:08;11.38;;;8.18;;
15637;SDS011;26604;53.596;10.042;2022-08-19T09:28:40;10.70;;;8.07;;
15637;SDS011;26604;53.596;10.042;2022-08-19T09:31:08;13.00;;;9.20;;
15637;SDS011;26604;53.596;10.042;2022-08-19T09:33:35;12.98;;;9.02;;
15637;SDS011;26604;53.596;10.042;2022-08-19T09:36:04;14.75;;;9.13;;
15637;SDS011;26604;53.596;10.042;2022-08-19T09:38:32;13.05;;;8.15;;
15637;SDS011;26604;53.596;10.042;2022-08-19T09:41:02;14.48;;;8.48;;
15637;SDS011;26604;53.596;10.042;2022-08-19T09:43:30;14.98;;;8.18;;
15637;SDS011;26604;53.596;10.042;2022-08-19T09:45:59;21.85;;;8.52;;
15637;SDS011;26604;53.596;10.042;2022-08-19T09:48:26;13.00;;;8.57;;
15637;SDS011;26604;53.596;10.042;2022-08-19T09:50:53;11.52;;;7.80;;
15637;SDS011;26604;53.596;10.042;2022-08-19T09:53:20;15.70;;;8.13;;
15637;SDS011;26604;53.596;10.042;2022-08-19T09:55:48;14.98;;;8.73;;
15637;SDS011;26604;53.596;10.042;2022-08-19T09:58:15;15.00;;;8.05;;
15637;SDS011;26604;53.596;10.042;2022-08-19T10:00:42;14.32;;;8.30;;
15637;SDS011;26604;53.596;10.042;2022-08-19T10:03:12;18.17;;;8.95;;
15637;SDS011;26604;53.596;10.042;2022-08-19T10:05:38;14.07;;;8.70;;
15637;SDS011;26604;53.596;10.042;2022-08-19T10:08:15;16.90;;;8.90;;
15637;SDS011;26604;53.596;10.042;2022-08-19T10:10:44;14.05;;;8.52;;
15637;SDS011;26604;53.596;10.042;2022-08-19T10:13:11;13.38;;;8.40;;
15637;SDS011;26604;53.596;10.042;2022-08-19T10:15:39;17.00;;;7.90;;
15637;SDS011;26604;53.596;10.042;2022-08-19T10:18:06;16.08;;;8.23;;
15637;SDS011;26604;53.596;10.042;2022-08-19T10:20:35;16.40;;;7.38;;
15637;SDS011;26604;53.596;10.042;2022-08-19T10:23:02;17.60;;;7.90;;
15637;SDS011;26604;53.596;10.042;2022-08-19T10:25:29;11.18;;;7.22;;
15637;SDS011;26604;53.596;10.042;2022-08-19T10:27:58;16.50;;;8.85;;
15637;SDS011;26604;53.596;10.042;2022-08-19T10:30:25;20.75;;;8.57;;
15637;SDS011;26604;53.596;10.042;2022-08-19T10:32:52;14.63;;;8.48;;
15637;SDS011;26604;53.596;10.042;2022-08-19T10:35:19;18.98;;;7.90;;
15637;SDS011;26604;53.596;10.042;2022-08-19T10:37:47;18.52;;;8.07;;
15637;SDS011;26604;53.596;10.042;2022-08-19T10:40:15;19.45;;;8.18;;
15637;SDS011;26604;53.596;10.042;2022-08-19T10:42:41;19.35;;;7.93;;
15637;SDS011;26604;53.596;10.042;2022-08-19T10:45:09;17.23;;;7.78;;
15637;SDS011;26604;53.596;10.042;2022-08-19T10:47:37;16.52;;;7.55;;
15637;SDS011;26604;53.596;10.042;2022-08-19T10:50:04;18.23;;;7.63;;
15637;SDS011;26604;53.596;10.042;2022-08-19T10:52:50;13.48;;;7.57;;
15637;SDS011;26604;53.596;10.042;2022-08-19T10:55:18;19.48;;;8.23;;
15637;SDS011;26604;53.596;10.042;2022-08-19T10:58:03;16.25;;;7.60;;
15637;SDS011;26604;53.596;10.042;2022-08-19T11:00:35;18.52;;;8.55;;
15637;SDS011;26604;53.596;10.042;2022-08-19T11:03:02;12.55;;;6.95;;
15637;SDS011;26604;53.596;10.042;2022-08-19T11:05:29;17.17;;;8.40;;
15637;SDS011;26604;53.596;10.042;2022-08-19T11:07:57;14.65;;;8.25;;
15637;SDS011;26604;53.596;10.042;2022-08-19T11:10:24;15.55;;;7.28;;
15637;SDS011;26604;53.596;10.042;2022-08-19T11:12:51;12.75;;;7.45;;
15637;SDS011;26604;53.596;10.042;2022-08-19T11:15:19;18.88;;;8.07;;
15637;SDS011;26604;53.596;10.042;2022-08-19T11:17:46;16.30;;;7.38;;
15637;SDS011;26604;53.596;10.042;2022-08-19T11:20:14;14.65;;;7.05;;
15637;SDS011;26604;53.596;10.042;2022-08-19T11:22:41;16.13;;;8.27;;
15637;SDS011;26604;53.596;10.042;2022-08-19T11:25:10;14.35;;;7.80;;
15637;SDS011;26604;53.596;10.042;2022-08-19T11:27:38;16.17;;;7.07;;
15637;SDS011;26604;53.596;10.042;2022-08-19T11:30:07;12.68;;;7.45;;
15637;SDS011;26604;53.596;10.042;2022-08-19T11:32:35;13.30;;;7.28;;
15637;SDS011;26604;53.596;10.042;2022-08-19T11:35:02;17.85;;;7.25;;
15637;SDS011;26604;53.596;10.042;2022-08-19T11:37:30;15.18;;;7.55;;
15637;SDS011;26604;53.596;10.042;2022-08-19T11:39:56;16.90;;;7.40;;
15637;SDS011;26604;53.596;10.042;2022-08-19T11:42:25;13.30;;;7.35;;
15637;SDS011;26604;53.596;10.042;2022-08-19T11:45:17;17.92;;;7.55;;
15637;SDS011;26604;53.596;10.042;2022-08-19T11:47:44;13.98;;;6.82;;
15637;SDS011;26604;53.596;10.042;2022-08-19T11:50:12;12.23;;;7.80;;
15637;SDS011;26604;53.596;10.042;2022-08-19T11:52:39;12.55;;;7.38;;
15637;SDS011;26604;53.596;10.042;2022-08-19T11:55:10;15.00;;;7.13;;
15637;SDS011;26604;53.596;10.042;2022-08-19T11:57:38;15.15;;;7.72;;
15637;SDS011;26604;53.596;10.042;2022-08-19T12:00:06;13.13;;;6.90;;
15637;SDS011;26604;53.596;10.042;2022-08-19T12:02:35;14.30;;;7.15;;
15637;SDS011;26604;53.596;10.042;2022-08-19T12:05:02;16.15;;;7.55;;
15637;SDS011;26604;53.596;10.042;2022-08-19T12:07:29;14.27;;;6.68;;
15637;SDS011;26604;53.596;10.042;2022-08-19T12:09:58;14.32;;;7.15;;
15637;SDS011;26604;53.596;10.042;2022-08-19T12:12:25;17.17;;;7.38;;
15637;SDS011;26604;53.596;10.042;2022-08-19T12:14:54;10.55;;;6.57;;
15637;SDS011;26604;53.596;10.042;2022-08-19T12:17:23;18.73;;;7.70;;
15637;SDS011;26604;53.596;10.042;2022-08-19T12:19:50;15.30;;;7.05;;
15637;SDS011;26604;53.596;10.042;2022-08-19T12:22:17;15.38;;;7.40;;
15637;SDS011;26604;53.596;10.042;2022-08-19T12:24:45;13.65;;;6.60;;
15637;SDS011;26604;53.596;10.042;2022-08-19T12:27:13;12.35;;;6.65;;
15637;SDS011;26604;53.596;10.042;2022-08-19T12:29:39;15.45;;;7.13;;
15637;SDS011;26604;53.596;10.042;2022-08-19T12:32:08;12.27;;;6.75;;
15637;SDS011;26604;53.596;10.042;2022-08-19T12:34:35;16.05;;;6.45;;
15637;SDS011;26604;53.596;10.042;2022-08-19T12:37:03;16.80;;;6.97;;
15637;SDS011;26604;53.596;10.042;2022-08-19T12:39:33;14.13;;;7.38;;
15637;SDS011;26604;53.596;10.042;2022-08-19T12:42:01;14.98;;;7.63;;
15637;SDS011;26604;53.596;10.042;2022-08-19T12:44:28;10.23;;;6.90;;
15637;SDS011;26604;53.596;10.042;2022-08-19T12:46:57;17.27;;;7.35;;
15637;SDS011;26604;53.596;10.042;2022-08-19T12:49:25;16.33;;;6.65;;
15637;SDS011;26604;53.596;10.042;2022-08-19T12:51:54;14.57;;;6.70;;
15637;SDS011;26604;53.596;10.042;2022-08-19T12:54:20;19.70;;;7.60;;
15637;SDS011;26604;53.596;10.042;2022-08-19T12:56:47;15.32;;;6.55;;
15637;SDS011;26604;53.596;10.042;2022-08-19T12:59:14;13.48;;;7.43;;
15637;SDS011;26604;53.596;10.042;2022-08-19T13:01:43;16.70;;;5.82;;
15637;SDS011;26604;53.596;10.042;2022-08-19T13:04:10;12.73;;;6.63;;
15637;SDS011;26604;53.596;10.042;2022-08-19T13:06:38;18.05;;;7.10;;
15637;SDS011;26604;53.596;10.042;2022-08-19T13:09:05;11.88;;;6.53;;
15637;SDS011;26604;53.596;10.042;2022-08-19T13:11:32;16.58;;;6.90;;
15637;SDS011;26604;53.596;10.042;2022-08-19T13:13:59;14.15;;;6.55;;
15637;SDS011;26604;53.596;10.042;2022-08-19T13:16:28;16.33;;;6.63;;
15637;SDS011;26604;53.596;10.042;2022-08-19T13:18:55;11.18;;;5.80;;
15637;SDS011;26604;53.596;10.042;2022-08-19T13:21:25;14.35;;;6.30;;
15637;SDS011;26604;53.596;10.042;2022-08-19T13:23:56;17.13;;;6.45;;
15637;SDS011;26604;53.596;10.042;2022-08-19T13:26:23;17.83;;;6.85;;
15637;SDS011;26604;53.596;10.042;2022-08-19T13:28:50;11.98;;;6.15;;
15637;SDS011;26604;53.596;10.042;2022-08-19T13:31:35;9.95;;;6.43;;
15637;SDS011;26604;53.596;10.042;2022-08-19T13:34:25;14.45;;;6.20;;
15637;SDS011;26604;53.596;10.042;2022-08-19T13:36:54;12.85;;;5.93;;
15637;SDS011;26604;53.596;10.042;2022-08-19T13:39:23;12.50;;;5.80;;
15637;SDS011;26604;53.596;10.042;2022-08-19T13:41:49;10.90;;;6.32;;
15637;SDS011;26604;53.596;10.042;2022-08-19T13:44:17;12.85;;;5.95;;
15637;SDS011;26604;53.596;10.042;2022-08-19T13:46:44;11.60;;;5.90;;
15637;SDS011;26604;53.596;10.042;2022-08-19T13:49:12;16.20;;;6.60;;
15637;SDS011;26604;53.596;10.042;2022-08-19T13:51:40;13.27;;;6.25;;
15637;SDS011;26604;53.596;10.042;2022-08-19T13:54:07;17.98;;;5.90;;
15637;SDS011;26604;53.596;10.042;2022-08-19T13:56:38;10.73;;;6.53;;
15637;SDS011;26604;53.596;10.042;2022-08-19T13:59:06;11.40;;;6.10;;
15637;SDS011;26604;53.596;10.042;2022-08-19T14:01:33;10.75;;;5.70;;
15637;SDS011;26604;53.596;10.042;2022-08-19T14:04:00;9.05;;;5.90;;
15637;SDS011;26604;53.596;10.042;2022-08-19T14:06:28;13.20;;;6.43;;
15637;SDS011;26604;53.596;10.042;2022-08-19T14:08:55;11.98;;;5.60;;
15637;SDS011;26604;53.596;10.042;2022-08-19T14:11:22;12.40;;;5.35;;
15637;SDS011;26604;53.596;10.042;2022-08-19T14:13:50;8.73;;;5.65;;
15637;SDS011;26604;53.596;10.042;2022-08-19T14:16:17;12.15;;;5.78;;
15637;SDS011;26604;53.596;10.042;2022-08-19T14:18:44;12.35;;;5.88;;
15637;SDS011;26604;53.596;10.042;2022-08-19T14:21:14;9.65;;;6.50;;
15637;SDS011;26604;53.596;10.042;2022-08-19T14:23:42;11.00;;;5.28;;
15637;SDS011;26604;53.596;10.042;2022-08-19T14:26:10;11.18;;;5.63;;